AYNZ/LAE METAR and TAF weather

Enter ICAO airport designator
Station Type Date Time Source
AYNZ METAR 2022/09/26 07:00 UTC NOAA

AYNZ 260700Z 09015KT 9999 HZ SKC 31/21 Q1005=


Station Type Date Time Source
AYNZ Decoded METAR 2022/09/26 07:00 UTC NOAA

Station name not available
Sep 26, 2022 - 03:00 AM EDT / 2022.09.26 0700 UTC
Wind: from the E (090 degrees) at 17 MPH (15 KT):0
Visibility: greater than 7 mile(s):0
Sky conditions: clear
Weather: haze
Temperature: 87 F (31 C)
Dew Point: 69 F (21 C)
Relative Humidity: 55%
Pressure (altimeter): 29.68 in. Hg (1005 hPa)
ob: AYNZ 260700Z 09015KT 9999 HZ SKC 31/21 Q1005=
cycle: 7

Station Type Date Time Source
AYNZ TAF 2015/08/19 08:15 UTC NOAA

TAF AYNZ 190550Z 1908/1920 09015KT 9999 SCT020 SCT120
FM191400 VRB03KT 9999 BKN040 Q 1011 1014 1013 1010

Example: see airport list